Terminal Aerodrome Forecast
Issued by NWS Quad Cities IA IL

Home | Current Version | Previous Version | Text Only | Print | Product List | Glossary On
Versions: 1 2 3 4 5 6 7 8 9 10 11 12 13 14 15 16 17 18 19 20
979
FTUS43 KDVN 080520
TAFMLI
TAF
KMLI 080520Z 0806/0906 27009KT P6SM VCSH OVC025
      TEMPO 0806/0807 5SM -SN BR OVC015
     FM080730 29014G22KT P6SM VCSH OVC025
      TEMPO 0808/0812 3SM -SN BR BKN009 OVC012
     FM081200 31015G24KT 2SM -SN BKN009 OVC015
     FM081700 32016G26KT 3SM -SHSN OVC015=

USA.gov is the U.S. government's official web portal to all federal, state and local government web resources and services.